createdAt,value
2023-05-10T00:00:20.082Z,100585.13
2023-05-10T00:02:48.252Z,100573.41
2023-05-10T00:05:18.982Z,100571.44
2023-05-10T00:07:46.835Z,100570.66
2023-05-10T00:10:14.797Z,100573.41
2023-05-10T00:12:42.975Z,100564.53
2023-05-10T00:15:11.330Z,100571.69
2023-05-10T00:17:39.221Z,100563.75
2023-05-10T00:20:08.062Z,100558.75
2023-05-10T00:22:37.192Z,100565.81
2023-05-10T00:25:05.778Z,100559.50
2023-05-10T00:27:33.637Z,100564.09
2023-05-10T00:30:01.683Z,100554.25
2023-05-10T00:32:29.580Z,100554.50
2023-05-10T00:34:57.511Z,100561.75
2023-05-10T00:37:25.353Z,100560.19
2023-05-10T00:39:54.500Z,100560.25
2023-05-10T00:42:22.245Z,100551.69
2023-05-10T00:44:50.036Z,100560.50
2023-05-10T00:47:18.601Z,100556.00
2023-05-10T00:49:47.788Z,100564.91
2023-05-10T00:52:15.838Z,100552.06
2023-05-10T00:54:44.071Z,100560.19
2023-05-10T00:57:13.423Z,100558.81
2023-05-10T00:59:41.566Z,100573.13
2023-05-10T01:02:09.489Z,100571.38
2023-05-10T01:04:38.123Z,100571.53
2023-05-10T01:07:05.986Z,100559.97
2023-05-10T01:09:35.135Z,100559.53
2023-05-10T01:12:04.531Z,100560.31
2023-05-10T01:14:33.872Z,100568.47
2023-05-10T01:17:02.584Z,100567.78
2023-05-10T01:19:35.760Z,100567.00
2023-05-10T01:22:12.409Z,100565.41
2023-05-10T01:25:06.248Z,100570.75
2023-05-10T01:28:12.702Z,100559.53
2023-05-10T01:31:25.304Z,100571.16
2023-05-10T01:34:01.118Z,100571.53
2023-05-10T01:36:33.238Z,100580.50
2023-05-10T01:39:08.246Z,100570.13
2023-05-10T01:41:42.409Z,100573.75
2023-05-10T01:44:18.402Z,100568.56
2023-05-10T01:46:50.860Z,100576.81
2023-05-10T01:49:31.614Z,100575.16
2023-05-10T01:52:02.914Z,100569.25
2023-05-10T01:54:32.314Z,100576.47
2023-05-10T01:57:05.202Z,100575.84
2023-05-10T01:59:37.457Z,100579.59
2023-05-10T02:02:07.473Z,100593.09
2023-05-10T02:04:39.234Z,100588.78
2023-05-10T02:07:08.744Z,100589.94
2023-05-10T02:09:37.141Z,100589.94
2023-05-10T02:12:07.263Z,100582.88
2023-05-10T02:14:38.223Z,100586.69
2023-05-10T02:17:08.097Z,100579.06
2023-05-10T02:19:40.062Z,100585.47
2023-05-10T02:22:09.205Z,100583.75
2023-05-10T02:24:38.632Z,100588.44
2023-05-10T02:27:07.053Z,100588.75
2023-05-10T02:29:36.325Z,100596.88
2023-05-10T02:32:04.814Z,100586.41
2023-05-10T02:34:34.053Z,100585.78
2023-05-10T02:37:04.983Z,100585.91
2023-05-10T02:39:34.179Z,100597.56
2023-05-10T02:42:03.961Z,100589.72
2023-05-10T02:44:32.337Z,100592.59
2023-05-10T02:47:00.955Z,100590.94
2023-05-10T02:49:28.848Z,100599.75
2023-05-10T02:52:02.068Z,100594.53
2023-05-10T02:54:33.946Z,100599.16
2023-05-10T02:57:06.187Z,100578.13
2023-05-10T02:59:34.663Z,100596.97
2023-05-10T03:02:03.338Z,100599.69
2023-05-10T03:04:31.188Z,100598.97
2023-05-10T03:06:58.989Z,100601.72
2023-05-10T03:09:26.896Z,100592.66
2023-05-10T03:12:03.104Z,100593.66
2023-05-10T03:14:45.521Z,100588.34
2023-05-10T03:17:21.667Z,100584.94
2023-05-10T03:19:55.228Z,100585.88
2023-05-10T03:22:27.469Z,100588.34
2023-05-10T03:24:58.704Z,100572.34
2023-05-10T03:27:29.725Z,100571.34
2023-05-10T03:29:59.200Z,100561.75
2023-05-10T03:32:28.186Z,100564.22
2023-05-10T03:34:55.962Z,100562.19
2023-05-10T03:37:23.746Z,100558.25
2023-05-10T03:39:51.826Z,100557.22
2023-05-10T03:42:19.863Z,100544.00
2023-05-10T03:44:50.185Z,100541.91
2023-05-10T03:47:18.267Z,100535.47
2023-05-10T03:49:46.188Z,100539.69
2023-05-10T03:52:14.121Z,100526.28
2023-05-10T03:54:41.922Z,100519.16
2023-05-10T03:57:10.597Z,100516.34
2023-05-10T03:59:38.382Z,100511.72
2023-05-10T04:02:07.724Z,100511.50
2023-05-10T04:04:35.795Z,100513.94
2023-05-10T04:07:03.817Z,100511.97
2023-05-10T04:09:31.794Z,100510.03
2023-05-10T04:12:00.985Z,100501.88
2023-05-10T04:14:28.808Z,100509.13
2023-05-10T04:16:56.751Z,100507.22
2023-05-10T04:19:26.040Z,100508.00
2023-05-10T04:21:54.741Z,100515.72
2023-05-10T04:24:22.514Z,100513.69
2023-05-10T04:26:50.341Z,100512.47
2023-05-10T04:29:18.172Z,100516.69
2023-05-10T04:31:46.079Z,100509.31
2023-05-10T04:34:14.816Z,100500.06
2023-05-10T04:36:44.194Z,100506.66
2023-05-10T04:39:11.992Z,100492.16
2023-05-10T04:41:40.191Z,100493.22
2023-05-10T04:44:08.150Z,100495.44
2023-05-10T04:46:36.044Z,100521.56
2023-05-10T04:49:03.881Z,100513.78
2023-05-10T04:51:32.351Z,100445.13
2023-05-10T04:54:06.480Z,100395.88
2023-05-10T04:56:34.831Z,100394.00
2023-05-10T04:59:02.819Z,100324.50
2023-05-10T05:01:30.841Z,100343.59
2023-05-10T05:03:58.798Z,100409.03
2023-05-10T05:06:28.125Z,100302.31
2023-05-10T05:08:55.948Z,100339.44
2023-05-10T05:11:25.126Z,100227.34
2023-05-10T05:13:52.919Z,100217.06
2023-05-10T05:16:20.828Z,100202.22
2023-05-10T05:18:49.259Z,100213.28
2023-05-10T05:21:17.725Z,100194.25
2023-05-10T05:23:45.731Z,100143.28
2023-05-10T05:26:13.968Z,100182.38
2023-05-10T05:28:43.171Z,100151.38
2023-05-10T05:31:11.239Z,100106.97
2023-05-10T05:33:39.327Z,100112.25
2023-05-10T05:36:08.033Z,100172.59
2023-05-10T05:38:35.939Z,100128.50
2023-05-10T05:41:04.093Z,100129.66
2023-05-10T05:43:31.993Z,100166.56
2023-05-10T05:46:01.220Z,100189.13
2023-05-10T05:48:29.155Z,100121.53
2023-05-10T05:50:57.752Z,100100.28
2023-05-10T05:53:25.984Z,100094.94
2023-05-10T05:55:55.207Z,100141.88
2023-05-10T05:58:23.439Z,100086.78
2023-05-10T06:00:51.631Z,100031.09
2023-05-10T06:03:21.201Z,100044.66
2023-05-10T06:05:49.217Z,99977.16
2023-05-10T06:08:17.173Z,100046.81
2023-05-10T06:10:45.408Z,99994.34
2023-05-10T06:13:13.295Z,100007.50
2023-05-10T06:15:41.155Z,99869.97
2023-05-10T06:18:09.014Z,99848.69
2023-05-10T06:20:38.280Z,99990.97
2023-05-10T06:23:06.017Z,100001.56
2023-05-10T06:25:33.854Z,99955.69
2023-05-10T06:28:01.606Z,99949.47
2023-05-10T06:30:30.180Z,99907.19
2023-05-10T06:32:58.735Z,99932.34
2023-05-10T06:35:27.099Z,99909.53
2023-05-10T06:37:58.116Z,99862.91
2023-05-10T06:40:25.950Z,99954.06
2023-05-10T06:42:53.906Z,99954.34
2023-05-10T06:45:21.842Z,99989.16
2023-05-10T06:47:49.678Z,100014.44
2023-05-10T06:50:17.598Z,99918.03
2023-05-10T06:52:45.968Z,99991.22
2023-05-10T06:55:15.257Z,99891.03
2023-05-10T06:57:43.205Z,99981.25
2023-05-10T07:00:11.681Z,99875.50
2023-05-10T07:02:39.537Z,99903.84
2023-05-10T07:05:08.369Z,99945.56
2023-05-10T07:07:36.343Z,99947.69
2023-05-10T07:10:04.515Z,99858.88
2023-05-10T07:12:33.763Z,99924.50
2023-05-10T07:15:01.715Z,99958.38
2023-05-10T07:17:29.555Z,99803.84
2023-05-10T07:19:57.563Z,99902.72
2023-05-10T07:22:25.753Z,99924.44
2023-05-10T07:24:53.611Z,99964.16
2023-05-10T07:27:21.445Z,99860.03
2023-05-10T07:29:50.617Z,99792.44
2023-05-10T07:32:18.554Z,99896.19
2023-05-10T07:34:46.353Z,99886.41
2023-05-10T07:37:16.048Z,99934.59
2023-05-10T07:39:43.988Z,100021.09
2023-05-10T07:42:11.891Z,99835.72
2023-05-10T07:44:39.659Z,99882.31
2023-05-10T07:47:08.868Z,99923.72
2023-05-10T07:49:36.967Z,100024.44
2023-05-10T07:52:06.084Z,99963.13
2023-05-10T07:54:34.821Z,99980.94
2023-05-10T07:57:02.931Z,99946.59
2023-05-10T07:59:30.845Z,99891.16
2023-05-10T08:01:58.708Z,99814.34
2023-05-10T08:04:27.949Z,99895.22
2023-05-10T08:06:55.892Z,99814.25
2023-05-10T08:09:25.125Z,99886.91
2023-05-10T08:11:53.276Z,99905.09
2023-05-10T08:14:21.200Z,99847.94
2023-05-10T08:16:49.204Z,99877.22
2023-05-10T08:19:20.015Z,99811.59
2023-05-10T08:21:49.655Z,99823.50
2023-05-10T08:24:17.610Z,99859.75
2023-05-10T08:26:45.538Z,99870.91
2023-05-10T08:29:13.287Z,99825.88
2023-05-10T08:31:41.221Z,99857.28
2023-05-10T08:34:09.330Z,99855.28
2023-05-10T08:36:37.294Z,99886.38
2023-05-10T08:39:11.372Z,99904.69
2023-05-10T08:41:47.661Z,99908.38
2023-05-10T08:44:17.640Z,99864.41
2023-05-10T08:46:49.024Z,99776.00
2023-05-10T08:49:19.749Z,99929.38
2023-05-10T08:51:53.769Z,99917.19
2023-05-10T08:54:23.615Z,99881.53
2023-05-10T08:56:51.652Z,99862.91
2023-05-10T08:59:19.494Z,99905.81
2023-05-10T09:01:50.320Z,99896.47
2023-05-10T09:04:18.204Z,99939.03
2023-05-10T09:06:46.193Z,99951.91
2023-05-10T09:09:14.554Z,99932.66
2023-05-10T09:11:43.791Z,99955.78
2023-05-10T09:14:12.170Z,99904.19
2023-05-10T09:16:40.214Z,99875.50
2023-05-10T09:19:09.233Z,99923.13
2023-05-10T09:21:39.134Z,99918.22
2023-05-10T09:24:07.798Z,99898.44
2023-05-10T09:26:36.647Z,99900.81
2023-05-10T09:29:07.420Z,100034.09
2023-05-10T09:31:48.903Z,99977.00
2023-05-10T09:34:21.165Z,99930.00
2023-05-10T09:36:57.277Z,99988.34
2023-05-10T09:39:33.877Z,100100.09
2023-05-10T09:42:04.761Z,100059.94
2023-05-10T09:44:35.099Z,99939.41
2023-05-10T09:47:03.351Z,100004.44
2023-05-10T09:49:31.959Z,100086.75
2023-05-10T09:52:04.718Z,100068.81
2023-05-10T09:54:33.214Z,99988.88
2023-05-10T09:57:01.693Z,99978.47
2023-05-10T09:59:30.525Z,100043.38
2023-05-10T10:02:01.651Z,100084.63
2023-05-10T10:04:30.203Z,100014.38
2023-05-10T10:07:02.617Z,100036.13
2023-05-10T10:09:31.139Z,99968.50
2023-05-10T10:11:59.736Z,100038.19
2023-05-10T10:14:28.181Z,99948.41
2023-05-10T10:17:07.777Z,99948.88
2023-05-10T10:19:38.298Z,99936.59
2023-05-10T10:22:06.435Z,99945.94
2023-05-10T10:24:34.297Z,99947.47
2023-05-10T10:27:09.139Z,99965.50
2023-05-10T10:29:41.781Z,99971.31
2023-05-10T10:32:21.821Z,99986.53
2023-05-10T10:34:51.551Z,99902.91
2023-05-10T10:37:19.865Z,99948.72
2023-05-10T10:39:50.795Z,99906.41
2023-05-10T10:42:51.146Z,100036.25
2023-05-10T10:45:21.069Z,100004.69
2023-05-10T10:47:49.184Z,99930.06
2023-05-10T10:50:18.451Z,99952.13
2023-05-10T10:52:46.919Z,99971.63
2023-05-10T10:55:19.091Z,99969.19
2023-05-10T10:57:49.492Z,100003.38
2023-05-10T11:00:26.191Z,99950.81
2023-05-10T11:02:56.200Z,100050.88
2023-05-10T11:05:39.515Z,99959.34
2023-05-10T11:08:13.417Z,100034.09
2023-05-10T11:10:42.083Z,99951.66
2023-05-10T11:13:11.062Z,99957.22
2023-05-10T11:15:40.367Z,99994.91
2023-05-10T11:18:21.818Z,100056.56
2023-05-10T11:20:54.549Z,100034.81
2023-05-10T11:23:22.387Z,100063.78
2023-05-10T11:25:51.198Z,99949.91
2023-05-10T11:28:19.559Z,99978.41
2023-05-10T11:30:47.664Z,100012.75
2023-05-10T11:33:20.342Z,99935.28
2023-05-10T11:35:48.395Z,99947.53
2023-05-10T11:38:17.659Z,99945.66
2023-05-10T11:40:45.624Z,99942.47
2023-05-10T11:43:14.610Z,99939.22
2023-05-10T11:45:44.181Z,99946.53
2023-05-10T11:48:12.302Z,99990.88
2023-05-10T11:50:40.379Z,99972.72
2023-05-10T11:53:08.178Z,99985.47
2023-05-10T11:55:37.581Z,99992.44
2023-05-10T11:58:05.984Z,99985.31
2023-05-10T12:00:34.277Z,99963.56
2023-05-10T12:03:03.760Z,99999.72
2023-05-10T12:05:35.086Z,99976.28
2023-05-10T12:08:15.381Z,100057.72
2023-05-10T12:10:44.590Z,99915.31
2023-05-10T12:13:16.861Z,99951.66
2023-05-10T12:15:45.475Z,99948.78
2023-05-10T12:18:14.703Z,99899.69
2023-05-10T12:20:43.513Z,99990.06
2023-05-10T12:23:12.254Z,99981.56
2023-05-10T12:25:41.049Z,99944.03
2023-05-10T12:28:11.648Z,99887.28
2023-05-10T12:30:40.463Z,99913.44
2023-05-10T12:33:13.007Z,99934.69
2023-05-10T12:35:48.456Z,99984.13
2023-05-10T12:38:27.698Z,99929.94
2023-05-10T12:40:55.519Z,100057.63
2023-05-10T12:43:24.911Z,99999.34
2023-05-10T12:45:52.810Z,99984.69
2023-05-10T12:48:20.795Z,99994.75
2023-05-10T12:50:48.721Z,99962.63
2023-05-10T12:53:17.490Z,99989.28
2023-05-10T12:55:45.885Z,100036.75
2023-05-10T12:58:17.910Z,99995.41
2023-05-10T13:00:47.347Z,100009.19
2023-05-10T13:03:15.741Z,100037.94
2023-05-10T13:05:43.628Z,99907.00
2023-05-10T13:08:11.403Z,99987.09
2023-05-10T13:10:39.287Z,99990.16
2023-05-10T13:13:08.382Z,99967.00
2023-05-10T13:15:36.522Z,99933.00
2023-05-10T13:18:05.867Z,99936.72
2023-05-10T13:20:33.666Z,99891.34
2023-05-10T13:23:01.533Z,99844.78
2023-05-10T13:25:29.299Z,99949.53
2023-05-10T13:27:57.061Z,99937.78
2023-05-10T13:30:26.221Z,99868.75
2023-05-10T13:32:54.095Z,99883.34
2023-05-10T13:35:23.504Z,99912.25
2023-05-10T13:37:51.309Z,99865.00
2023-05-10T13:40:19.293Z,99904.44
2023-05-10T13:42:47.115Z,99938.44
2023-05-10T13:45:15.040Z,99881.63
2023-05-10T13:47:43.016Z,99849.84
2023-05-10T13:50:11.217Z,99855.63
2023-05-10T13:52:40.425Z,99925.69
2023-05-10T13:55:08.775Z,99943.53
2023-05-10T13:57:36.970Z,99967.00
2023-05-10T14:00:05.602Z,99977.88
2023-05-10T14:02:33.515Z,99887.72
2023-05-10T14:05:01.531Z,99857.66
2023-05-10T14:07:29.328Z,99850.53
2023-05-10T14:09:58.582Z,99837.84
2023-05-10T14:12:26.445Z,99864.50
2023-05-10T14:14:54.392Z,99872.34
2023-05-10T14:17:23.084Z,99832.22
2023-05-10T14:19:51.026Z,99829.34
2023-05-10T14:22:19.296Z,99812.72
2023-05-10T14:24:48.115Z,99891.69
2023-05-10T14:27:17.347Z,99922.63
2023-05-10T14:29:45.139Z,99898.34
2023-05-10T14:32:13.123Z,99848.56
2023-05-10T14:34:41.112Z,99858.72
2023-05-10T14:37:08.941Z,99885.75
2023-05-10T14:39:36.830Z,99900.34
2023-05-10T14:42:04.815Z,99894.22
2023-05-10T14:44:33.881Z,99903.06
2023-05-10T14:47:01.744Z,99930.22
2023-05-10T14:49:30.117Z,99941.78
2023-05-10T14:51:57.913Z,99927.00
2023-05-10T14:54:25.760Z,99924.31
2023-05-10T14:56:53.541Z,99969.34
2023-05-10T14:59:22.561Z,99960.72
2023-05-10T15:01:52.207Z,99967.03
2023-05-10T15:04:20.548Z,99981.97
2023-05-10T15:06:48.844Z,99982.16
2023-05-10T15:09:17.387Z,99977.19
2023-05-10T15:11:45.537Z,99959.88
2023-05-10T15:14:13.358Z,99968.03
2023-05-10T15:16:41.180Z,99974.47
2023-05-10T15:19:10.362Z,99943.31
2023-05-10T15:21:39.808Z,99906.72
2023-05-10T15:24:07.935Z,99919.34
2023-05-10T15:26:35.725Z,99887.19
2023-05-10T15:29:03.505Z,99947.41
2023-05-10T15:31:31.580Z,100007.13
2023-05-10T15:34:00.703Z,99984.66
2023-05-10T15:36:30.042Z,100013.56
2023-05-10T15:38:57.925Z,100229.75
2023-05-10T15:41:26.090Z,100365.19
2023-05-10T15:43:53.856Z,100352.13
2023-05-10T15:46:21.722Z,100353.97
2023-05-10T15:48:49.633Z,100398.78
2023-05-10T15:51:17.504Z,100372.44
2023-05-10T15:54:00.416Z,100416.69
2023-05-10T15:56:33.779Z,100419.09
2023-05-10T15:59:01.618Z,100415.44
2023-05-10T16:01:30.870Z,100422.75
2023-05-10T16:03:59.039Z,100417.84
2023-05-10T16:06:27.157Z,100456.31
2023-05-10T16:08:56.414Z,100476.28
2023-05-10T16:11:24.332Z,100480.00
2023-05-10T16:13:52.828Z,100503.72
2023-05-10T16:16:20.875Z,100521.97
2023-05-10T16:18:48.880Z,100526.25
2023-05-10T16:21:16.893Z,100515.38
2023-05-10T16:23:46.452Z,100500.31
2023-05-10T16:26:15.655Z,100521.25
2023-05-10T16:28:43.618Z,100528.63
2023-05-10T16:31:11.488Z,100545.84
2023-05-10T16:33:41.229Z,100568.88
2023-05-10T16:36:09.160Z,100579.69
2023-05-10T16:38:37.724Z,100581.22
2023-05-10T16:41:08.898Z,100579.25
2023-05-10T16:43:38.083Z,100591.09
2023-05-10T16:46:11.313Z,100592.66
2023-05-10T16:48:39.283Z,100585.81
2023-05-10T16:51:23.028Z,100578.34
2023-05-10T16:53:50.935Z,100575.91
2023-05-10T16:56:18.820Z,100593.16
2023-05-10T16:58:49.873Z,100598.09
2023-05-10T17:01:17.693Z,100594.97
2023-05-10T17:03:45.643Z,100596.75
2023-05-10T17:06:13.980Z,100606.84
2023-05-10T17:08:42.067Z,100611.06
2023-05-10T17:11:10.029Z,100621.38
2023-05-10T17:13:38.757Z,100627.94
2023-05-10T17:16:08.303Z,100624.31
2023-05-10T17:18:36.579Z,100623.22
2023-05-10T17:21:04.564Z,100638.94
2023-05-10T17:23:32.378Z,100642.41
2023-05-10T17:26:01.703Z,100659.00
2023-05-10T17:28:29.793Z,100661.59
2023-05-10T17:30:58.547Z,100672.91
2023-05-10T17:33:27.789Z,100673.25
2023-05-10T17:35:56.779Z,100679.25
2023-05-10T17:38:24.791Z,100692.63
2023-05-10T17:40:52.697Z,100686.09
2023-05-10T17:43:21.692Z,100688.56
2023-05-10T17:45:50.913Z,100692.75
2023-05-10T17:48:18.739Z,100701.41
2023-05-10T17:50:47.927Z,100691.34
2023-05-10T17:53:15.836Z,100700.03
2023-05-10T17:55:43.938Z,100693.38
2023-05-10T17:58:12.881Z,100702.91
2023-05-10T18:00:41.060Z,100692.72
2023-05-10T18:03:09.007Z,100693.19
2023-05-10T18:05:38.139Z,100692.78
2023-05-10T18:08:07.531Z,100702.41
2023-05-10T18:10:35.361Z,100701.16
2023-05-10T18:13:06.268Z,100698.81
2023-05-10T18:15:36.374Z,100696.91
2023-05-10T18:18:05.070Z,100712.91
2023-05-10T18:20:33.060Z,100716.16
2023-05-10T18:23:00.899Z,100727.41
2023-05-10T18:25:30.158Z,100728.69
2023-05-10T18:27:58.296Z,100732.81
2023-05-10T18:30:26.161Z,100720.63
2023-05-10T18:32:54.222Z,100717.41
2023-05-10T18:35:22.518Z,100725.81
2023-05-10T18:37:50.739Z,100722.38
2023-05-10T18:40:19.550Z,100714.84
2023-05-10T18:42:50.077Z,100733.06
2023-05-10T18:45:18.180Z,100731.69
2023-05-10T18:47:46.252Z,100735.41
2023-05-10T18:50:14.169Z,100748.13
2023-05-10T18:52:42.580Z,100751.91
2023-05-10T18:55:10.869Z,100752.22
2023-05-10T18:57:41.371Z,100747.97
2023-05-10T19:00:12.992Z,100752.84
2023-05-10T19:02:41.394Z,100749.50
2023-05-10T19:05:09.891Z,100755.41
2023-05-10T19:07:37.738Z,100761.13
2023-05-10T19:10:06.283Z,100765.97
2023-05-10T19:12:34.013Z,100777.56
2023-05-10T19:15:01.738Z,100781.97
2023-05-10T19:17:31.351Z,100781.88
2023-05-10T19:20:02.287Z,100780.03
2023-05-10T19:25:01.385Z,100781.47
2023-05-10T19:27:29.757Z,100773.31
2023-05-10T19:29:57.778Z,100777.47
2023-05-10T19:32:28.645Z,100774.78
2023-05-10T19:34:57.918Z,100769.22
2023-05-10T19:37:26.057Z,100780.06
2023-05-10T19:39:54.138Z,100780.16
2023-05-10T19:42:21.818Z,100780.28
2023-05-10T19:44:49.688Z,100780.38
2023-05-10T19:47:17.707Z,100784.91
2023-05-10T19:49:45.584Z,100784.25
2023-05-10T19:52:15.438Z,100795.34
2023-05-10T19:54:44.714Z,100796.72
2023-05-10T19:57:14.046Z,100799.72
2023-05-10T19:59:41.860Z,100807.44
2023-05-10T20:02:09.711Z,100814.22
2023-05-10T20:04:37.403Z,100827.19
2023-05-10T20:13:38.052Z,100841.78
2023-05-10T20:16:07.313Z,100843.78
2023-05-10T20:18:35.252Z,100833.72
2023-05-10T20:21:03.210Z,100838.03
2023-05-10T20:23:31.378Z,100834.69
2023-05-10T20:25:59.777Z,100829.72
2023-05-10T20:28:28.496Z,100840.47
2023-05-10T20:30:58.052Z,100824.84
2023-05-10T20:33:26.014Z,100834.91
2023-05-10T20:35:53.918Z,100839.53
2023-05-10T20:38:30.117Z,100833.72
2023-05-10T20:41:01.775Z,100848.34
2023-05-10T20:43:35.315Z,100845.25
2023-05-10T20:46:07.049Z,100841.81
2023-05-10T20:48:41.824Z,100852.34
2023-05-10T20:51:15.109Z,100847.66
2023-05-10T20:53:47.309Z,100845.66
2023-05-10T20:56:16.774Z,100833.16
2023-05-10T20:58:45.869Z,100834.13
2023-05-10T21:01:18.944Z,100824.84
2023-05-10T21:03:46.917Z,100824.91
2023-05-10T21:06:14.841Z,100827.13
2023-05-10T21:08:42.677Z,100834.72
2023-05-10T21:11:10.607Z,100835.84
2023-05-10T21:13:38.462Z,100848.63
2023-05-10T21:16:06.768Z,100852.44
2023-05-10T21:18:36.108Z,100855.41
2023-05-10T21:21:04.131Z,100852.91
2023-05-10T21:23:34.350Z,100861.06
2023-05-10T21:26:04.801Z,100866.53
2023-05-10T21:28:32.750Z,100871.91
2023-05-10T21:31:00.582Z,100880.03
2023-05-10T21:33:28.429Z,100885.50
2023-05-10T21:35:57.871Z,100883.88
2023-05-10T21:38:25.802Z,100884.13
2023-05-10T21:40:53.696Z,100891.25
2023-05-10T21:43:21.617Z,100893.16
2023-05-10T21:45:49.525Z,100899.38
2023-05-10T21:48:17.495Z,100895.84
2023-05-10T21:50:47.508Z,100897.94
2023-05-10T21:53:17.102Z,100915.19
2023-05-10T21:55:44.934Z,100923.31
2023-05-10T21:58:12.917Z,100915.53
2023-05-10T22:00:41.086Z,100935.09
2023-05-10T22:03:09.121Z,100938.56
2023-05-10T22:05:37.182Z,100937.59
2023-05-10T22:08:06.451Z,100929.25
2023-05-10T22:10:35.829Z,100933.59
2023-05-10T22:13:03.755Z,100939.75
2023-05-10T22:15:34.180Z,100928.91
2023-05-10T22:18:03.535Z,100930.53
2023-05-10T22:20:31.611Z,100936.59
2023-05-10T22:22:59.460Z,100931.16
2023-05-10T22:25:27.387Z,100930.97
2023-05-10T22:27:56.707Z,100935.34
2023-05-10T22:30:24.823Z,100940.72
2023-05-10T22:32:52.795Z,100943.59
2023-05-10T22:35:21.018Z,100952.72
2023-05-10T22:37:48.946Z,100968.13
2023-05-10T22:40:17.270Z,100962.09
2023-05-10T22:42:45.475Z,100959.69
2023-05-10T22:45:14.734Z,100975.06
2023-05-10T22:47:42.728Z,100983.31
2023-05-10T22:50:11.125Z,100992.41
2023-05-10T22:52:39.917Z,101005.06
2023-05-10T22:55:08.510Z,101019.59
2023-05-10T22:57:36.969Z,101016.41
2023-05-10T23:00:06.229Z,101015.09
2023-05-10T23:02:35.801Z,101018.22
2023-05-10T23:05:05.372Z,101026.88
2023-05-10T23:07:33.543Z,101033.41
2023-05-10T23:10:01.482Z,101033.91
2023-05-10T23:12:31.293Z,101044.94
2023-05-10T23:14:59.617Z,101055.00
2023-05-10T23:17:27.663Z,101054.38
2023-05-10T23:19:57.049Z,101060.13
2023-05-10T23:22:25.063Z,101045.41
2023-05-10T23:24:52.911Z,101046.16
2023-05-10T23:27:20.981Z,101063.50
2023-05-10T23:29:52.415Z,101065.78
2023-05-10T23:32:20.472Z,101075.78
2023-05-10T23:34:48.362Z,101083.91
2023-05-10T23:37:17.923Z,101075.41
2023-05-10T23:39:46.604Z,101103.91
2023-05-10T23:42:14.461Z,101075.09
2023-05-10T23:44:42.287Z,101086.78
2023-05-10T23:47:10.163Z,101063.38
2023-05-10T23:49:38.123Z,101094.03
2023-05-10T23:52:06.109Z,101111.16
2023-05-10T23:54:35.555Z,101112.31
2023-05-10T23:57:03.559Z,101116.19
2023-05-10T23:59:31.424Z,101108.50
